createdAt,value
2018-12-18T00:00:03.253Z,4.10
2018-12-18T00:02:31.823Z,4.10
2018-12-18T00:05:02.354Z,4.10
2018-12-18T00:07:30.721Z,4.10
2018-12-18T00:09:59.055Z,4.10
2018-12-18T00:12:27.713Z,4.10
2018-12-18T00:14:56.069Z,4.20
2018-12-18T00:17:24.846Z,4.10
2018-12-18T00:19:53.114Z,4.10
2018-12-18T00:22:21.778Z,4.10
2018-12-18T00:24:50.079Z,4.10
2018-12-18T00:27:18.714Z,4.10
2018-12-18T00:29:47.060Z,4.10
2018-12-18T00:32:15.798Z,4.10
2018-12-18T00:34:44.103Z,4.10
2018-12-18T00:37:12.589Z,4.10
2018-12-18T00:39:40.913Z,4.10
2018-12-18T00:42:09.511Z,4.10
2018-12-18T00:44:37.831Z,4.10
2018-12-18T00:47:06.128Z,4.10
2018-12-18T00:49:34.596Z,4.10
2018-12-18T00:52:02.948Z,4.20
2018-12-18T00:54:31.333Z,4.20
2018-12-18T00:56:59.752Z,4.20
2018-12-18T00:59:28.132Z,4.30
2018-12-18T01:02:00.460Z,4.30
2018-12-18T01:04:28.911Z,4.40
2018-12-18T01:06:57.192Z,4.50
2018-12-18T01:09:25.827Z,4.50
2018-12-18T01:11:54.125Z,4.50
2018-12-18T01:14:22.781Z,4.60
2018-12-18T01:16:51.061Z,4.60
2018-12-18T01:19:19.635Z,4.60
2018-12-18T01:21:47.937Z,4.60
2018-12-18T01:24:16.873Z,4.60
2018-12-18T01:26:45.159Z,4.60
2018-12-18T01:29:14.658Z,4.50
2018-12-18T01:31:44.001Z,4.50
2018-12-18T01:34:12.560Z,4.50
2018-12-18T01:36:40.833Z,4.50
2018-12-18T01:39:09.185Z,4.50
2018-12-18T01:41:37.644Z,4.40
2018-12-18T01:44:05.933Z,4.40
2018-12-18T01:46:34.192Z,4.40
2018-12-18T01:49:02.780Z,4.40
2018-12-18T01:51:31.136Z,4.30
2018-12-18T01:53:59.612Z,4.30
2018-12-18T01:56:27.868Z,4.30
2018-12-18T01:58:56.147Z,4.20
2018-12-18T02:01:24.790Z,4.20
2018-12-18T02:03:53.166Z,4.20
2018-12-18T02:06:21.741Z,4.10
2018-12-18T02:08:50.143Z,4.10
2018-12-18T02:11:19.035Z,4.10
2018-12-18T02:13:47.370Z,4.10
2018-12-18T02:16:16.031Z,4.00
2018-12-18T02:18:44.336Z,4.00
2018-12-18T02:21:12.712Z,3.90
2018-12-18T02:23:40.984Z,3.90
2018-12-18T02:26:09.330Z,3.80
2018-12-18T02:28:37.788Z,3.80
2018-12-18T02:31:06.136Z,3.80
2018-12-18T02:33:34.706Z,3.70
2018-12-18T02:36:02.995Z,3.70
2018-12-18T02:38:31.374Z,3.70
2018-12-18T02:40:59.845Z,3.70
2018-12-18T02:43:28.146Z,3.70
2018-12-18T02:45:56.437Z,3.60
2018-12-18T02:48:24.978Z,3.60
2018-12-18T02:50:53.264Z,3.60
2018-12-18T02:53:21.806Z,3.60
2018-12-18T02:55:50.115Z,3.60
2018-12-18T02:58:18.973Z,3.60
2018-12-18T03:00:47.418Z,3.60
2018-12-18T03:03:15.849Z,3.60
2018-12-18T03:05:44.198Z,3.60
2018-12-18T03:08:12.720Z,3.70
2018-12-18T03:10:41.011Z,3.70
2018-12-18T03:13:09.447Z,3.70
2018-12-18T03:15:37.949Z,3.70
2018-12-18T03:18:06.409Z,3.70
2018-12-18T03:20:34.822Z,3.70
2018-12-18T03:23:03.178Z,3.70
2018-12-18T03:25:32.173Z,3.70
2018-12-18T03:28:00.572Z,3.70
2018-12-18T03:30:29.021Z,3.70
2018-12-18T03:32:57.583Z,3.70
2018-12-18T03:35:26.064Z,3.70
2018-12-18T03:37:54.391Z,3.70
2018-12-18T03:40:23.028Z,3.70
2018-12-18T03:42:51.547Z,3.80
2018-12-18T03:45:20.001Z,3.80
2018-12-18T03:47:48.290Z,3.80
2018-12-18T03:50:16.869Z,3.80
2018-12-18T03:52:45.176Z,3.80
2018-12-18T03:55:14.384Z,3.80
2018-12-18T03:57:42.928Z,3.80
2018-12-18T04:00:11.841Z,3.80
2018-12-18T04:02:40.388Z,3.80
2018-12-18T04:05:08.913Z,3.90
2018-12-18T04:07:37.356Z,3.80
2018-12-18T04:10:05.897Z,3.90
2018-12-18T04:12:34.204Z,3.90
2018-12-18T04:15:02.555Z,3.90
2018-12-18T04:17:31.189Z,3.90
2018-12-18T04:19:59.463Z,3.80
2018-12-18T04:22:28.033Z,3.80
2018-12-18T04:24:56.303Z,3.90
2018-12-18T04:27:24.980Z,3.90
2018-12-18T04:29:53.330Z,3.90
2018-12-18T04:32:21.913Z,3.90
2018-12-18T04:34:50.186Z,3.90
2018-12-18T04:37:18.476Z,4.00
2018-12-18T04:39:46.950Z,4.00
2018-12-18T04:42:15.346Z,3.90
2018-12-18T04:44:43.604Z,3.90
2018-12-18T04:47:12.000Z,3.80
2018-12-18T04:49:40.381Z,3.80
2018-12-18T04:52:08.904Z,3.80
2018-12-18T04:54:37.179Z,3.80
2018-12-18T04:57:05.473Z,3.80
2018-12-18T04:59:34.065Z,3.80
2018-12-18T05:02:02.360Z,3.80
2018-12-18T05:04:30.742Z,3.80
2018-12-18T05:06:59.258Z,3.80
2018-12-18T05:09:27.603Z,3.90
2018-12-18T05:11:55.994Z,3.80
2018-12-18T05:14:24.355Z,3.80
2018-12-18T05:16:52.654Z,3.70
2018-12-18T05:19:21.245Z,3.70
2018-12-18T05:21:49.538Z,3.70
2018-12-18T05:24:18.089Z,3.70
2018-12-18T05:26:46.378Z,3.70
2018-12-18T05:29:15.355Z,3.60
2018-12-18T05:31:43.942Z,3.60
2018-12-18T05:34:12.259Z,3.60
2018-12-18T05:36:40.563Z,3.60
2018-12-18T05:39:09.025Z,3.60
2018-12-18T05:41:37.349Z,3.60
2018-12-18T05:44:05.613Z,3.60
2018-12-18T05:46:34.183Z,3.60
2018-12-18T05:49:02.453Z,3.50
2018-12-18T05:51:31.153Z,3.50
2018-12-18T05:53:59.520Z,3.50
2018-12-18T05:56:27.808Z,3.50
2018-12-18T05:58:56.168Z,3.50
2018-12-18T06:01:24.544Z,3.50
2018-12-18T06:03:53.076Z,3.50
2018-12-18T06:06:21.369Z,3.60
2018-12-18T06:08:49.756Z,3.50
2018-12-18T06:11:18.494Z,3.50
2018-12-18T06:13:47.019Z,3.50
2018-12-18T06:16:15.460Z,3.40
2018-12-18T06:18:43.749Z,3.40
2018-12-18T06:21:12.181Z,3.40
2018-12-18T06:23:40.528Z,3.30
2018-12-18T06:26:09.136Z,3.30
2018-12-18T06:28:37.462Z,3.30
2018-12-18T06:31:06.072Z,3.20
2018-12-18T06:33:34.368Z,3.20
2018-12-18T06:36:02.637Z,3.20
2018-12-18T06:38:31.212Z,3.20
2018-12-18T06:40:59.483Z,3.20
2018-12-18T06:43:28.797Z,3.10
2018-12-18T06:45:57.128Z,3.10
2018-12-18T06:48:25.708Z,3.10
2018-12-18T06:50:54.351Z,3.10
2018-12-18T06:53:22.717Z,3.30
2018-12-18T06:55:51.220Z,3.40
2018-12-18T06:58:19.517Z,3.60
2018-12-18T07:00:47.791Z,3.80
2018-12-18T07:03:16.428Z,4.00
2018-12-18T07:05:44.712Z,4.00
2018-12-18T07:08:13.247Z,4.00
2018-12-18T07:10:41.512Z,4.00
2018-12-18T07:13:09.938Z,3.80
2018-12-18T07:15:38.395Z,3.70
2018-12-18T07:18:06.703Z,3.70
2018-12-18T07:20:35.253Z,3.70
2018-12-18T07:23:03.659Z,3.60
2018-12-18T07:25:32.623Z,3.60
2018-12-18T07:28:00.934Z,3.60
2018-12-18T07:30:29.501Z,3.60
2018-12-18T07:32:57.884Z,3.70
2018-12-18T07:35:26.477Z,3.70
2018-12-18T07:37:54.892Z,3.70
2018-12-18T07:40:23.525Z,3.60
2018-12-18T07:42:51.898Z,3.60
2018-12-18T07:45:20.475Z,3.50
2018-12-18T07:47:48.761Z,3.50
2018-12-18T07:50:17.348Z,3.50
2018-12-18T07:52:45.709Z,3.40
2018-12-18T07:55:15.154Z,3.30
2018-12-18T07:57:43.456Z,3.40
2018-12-18T08:00:11.733Z,3.30
2018-12-18T08:02:40.319Z,3.30
2018-12-18T08:05:08.617Z,3.30
2018-12-18T08:07:37.204Z,3.40
2018-12-18T08:10:06.957Z,3.50
2018-12-18T08:12:35.329Z,3.60
2018-12-18T08:15:03.883Z,3.60
2018-12-18T08:17:32.568Z,3.70
2018-12-18T08:20:00.948Z,3.80
2018-12-18T08:22:29.465Z,3.90
2018-12-18T08:24:57.758Z,3.90
2018-12-18T08:27:26.556Z,4.00
2018-12-18T08:29:54.872Z,4.10
2018-12-18T08:32:23.474Z,4.10
2018-12-18T08:34:51.829Z,4.10
2018-12-18T08:37:20.502Z,4.30
2018-12-18T08:39:48.877Z,4.40
2018-12-18T08:42:17.439Z,4.40
2018-12-18T08:44:45.724Z,4.40
2018-12-18T08:47:15.181Z,4.50
2018-12-18T08:49:43.488Z,4.50
2018-12-18T08:52:11.870Z,4.60
2018-12-18T08:54:40.754Z,4.80
2018-12-18T08:57:09.416Z,4.90
2018-12-18T08:59:37.741Z,5.00
2018-12-18T09:02:06.021Z,5.10
2018-12-18T09:04:34.508Z,5.30
2018-12-18T09:07:02.797Z,5.40
2018-12-18T09:09:31.095Z,5.50
2018-12-18T09:11:59.539Z,5.60
2018-12-18T09:14:27.844Z,5.80
2018-12-18T09:17:02.589Z,5.90
2018-12-18T09:19:30.878Z,5.90
2018-12-18T09:21:59.413Z,6.10
2018-12-18T09:24:27.756Z,6.10
2018-12-18T09:26:56.018Z,6.10
2018-12-18T09:29:24.579Z,6.10
2018-12-18T09:31:53.068Z,6.20
2018-12-18T09:34:21.698Z,6.20
2018-12-18T09:36:50.057Z,6.30
2018-12-18T09:39:21.067Z,6.10
2018-12-18T09:41:51.288Z,6.20
2018-12-18T09:44:19.594Z,6.30
2018-12-18T09:46:47.870Z,6.20
2018-12-18T09:49:16.725Z,6.20
2018-12-18T09:51:45.199Z,6.10
2018-12-18T09:54:13.521Z,6.20
2018-12-18T09:56:47.218Z,6.30
2018-12-18T09:59:15.761Z,6.40
2018-12-18T10:01:44.078Z,6.40
2018-12-18T10:04:12.556Z,6.40
2018-12-18T10:06:40.971Z,6.40
2018-12-18T10:09:09.982Z,6.40
2018-12-18T10:11:38.541Z,6.50
2018-12-18T10:14:06.989Z,6.50
2018-12-18T10:16:35.577Z,6.60
2018-12-18T10:19:03.845Z,6.70
2018-12-18T10:21:32.140Z,6.60
2018-12-18T10:24:00.463Z,6.70
2018-12-18T10:26:28.977Z,6.80
2018-12-18T10:28:57.502Z,6.60
2018-12-18T10:31:26.057Z,6.50
2018-12-18T10:33:54.627Z,6.40
2018-12-18T10:36:23.001Z,6.40
2018-12-18T10:38:51.573Z,6.50
2018-12-18T10:41:20.225Z,6.50
2018-12-18T10:43:48.657Z,6.50
2018-12-18T10:46:17.027Z,6.50
2018-12-18T10:48:45.588Z,6.40
2018-12-18T10:51:13.876Z,6.50
2018-12-18T10:53:42.248Z,6.50
2018-12-18T10:56:10.780Z,6.60
2018-12-18T10:58:39.070Z,6.70
2018-12-18T11:01:13.675Z,6.80
2018-12-18T11:03:42.004Z,6.80
2018-12-18T11:06:10.700Z,6.90
2018-12-18T11:08:39.058Z,6.90
2018-12-18T11:11:07.727Z,6.90
2018-12-18T11:13:36.008Z,6.90
2018-12-18T11:16:06.560Z,6.80
2018-12-18T11:18:34.889Z,6.90
2018-12-18T11:21:03.178Z,7.10
2018-12-18T11:23:32.168Z,7.10
2018-12-18T11:26:00.681Z,7.20
2018-12-18T11:28:28.962Z,7.50
2018-12-18T11:30:57.246Z,7.70
2018-12-18T11:33:25.729Z,7.90
2018-12-18T11:35:54.127Z,8.20
2018-12-18T11:38:22.678Z,8.40
2018-12-18T11:40:51.038Z,8.60
2018-12-18T11:43:19.920Z,8.80
2018-12-18T11:45:48.326Z,8.90
2018-12-18T11:48:16.886Z,9.20
2018-12-18T11:50:45.234Z,9.40
2018-12-18T11:53:13.636Z,9.60
2018-12-18T11:55:42.017Z,9.70
2018-12-18T11:58:10.365Z,9.70
2018-12-18T12:00:39.111Z,9.70
2018-12-18T12:03:07.709Z,9.40
2018-12-18T12:05:36.000Z,9.40
2018-12-18T12:08:04.608Z,9.30
2018-12-18T12:10:32.970Z,9.30
2018-12-18T12:13:01.334Z,9.10
2018-12-18T12:15:29.849Z,9.20
2018-12-18T12:17:58.253Z,9.20
2018-12-18T12:20:26.921Z,9.20
2018-12-18T12:22:55.291Z,9.20
2018-12-18T12:25:23.931Z,8.90
2018-12-18T12:27:57.792Z,8.90
2018-12-18T12:30:26.105Z,8.70
2018-12-18T12:32:54.642Z,8.50
2018-12-18T12:35:22.935Z,8.30
2018-12-18T12:37:51.269Z,8.40
2018-12-18T12:40:19.818Z,8.60
2018-12-18T12:42:48.329Z,8.60
2018-12-18T12:45:17.028Z,8.40
2018-12-18T12:47:47.093Z,8.40
2018-12-18T12:50:15.950Z,8.40
2018-12-18T12:52:44.227Z,8.30
2018-12-18T12:55:12.741Z,8.10
2018-12-18T12:57:41.178Z,8.20
2018-12-18T13:00:09.755Z,8.10
2018-12-18T13:02:38.081Z,8.10
2018-12-18T13:05:06.365Z,8.10
2018-12-18T13:07:34.823Z,8.10
2018-12-18T13:10:03.238Z,8.30
2018-12-18T13:12:31.949Z,8.60
2018-12-18T13:15:00.214Z,9.00
2018-12-18T13:17:28.862Z,9.50
2018-12-18T13:19:57.190Z,10.20
2018-12-18T13:22:25.974Z,11.20
2018-12-18T13:24:54.275Z,11.90
2018-12-18T13:27:22.929Z,12.80
2018-12-18T13:29:51.308Z,13.50
2018-12-18T13:32:19.988Z,14.20
2018-12-18T13:34:48.748Z,14.90
2018-12-18T13:37:17.060Z,15.30
2018-12-18T13:39:45.444Z,16.00
2018-12-18T13:42:13.830Z,16.40
2018-12-18T13:52:06.470Z,14.20
2018-12-18T13:54:35.017Z,14.50
2018-12-18T13:57:03.306Z,14.50
2018-12-18T13:59:31.853Z,15.30
2018-12-18T14:02:00.242Z,15.00
2018-12-18T14:04:29.023Z,14.80
2018-12-18T14:06:57.288Z,14.00
2018-12-18T14:09:25.924Z,13.40
2018-12-18T14:11:54.241Z,13.40
2018-12-18T14:14:22.810Z,13.10
2018-12-18T14:16:51.188Z,12.50
2018-12-18T14:19:19.535Z,12.50
2018-12-18T14:21:48.003Z,12.50
2018-12-18T14:24:16.377Z,12.60
2018-12-18T14:26:45.003Z,12.40
2018-12-18T14:34:09.587Z,10.20
2018-12-18T14:36:38.342Z,9.80
2018-12-18T14:44:03.140Z,8.40
2018-12-18T14:46:31.483Z,8.40
2018-12-18T14:51:28.079Z,7.40
2018-12-18T14:53:56.450Z,7.00
2018-12-18T14:58:53.085Z,6.90
2018-12-18T15:03:49.501Z,6.30
2018-12-18T15:08:46.329Z,6.10
2018-12-18T15:18:39.864Z,5.70
2018-12-18T15:23:36.241Z,5.50
2018-12-18T15:28:32.789Z,5.40
2018-12-18T15:43:28.774Z,5.10
2018-12-18T15:48:25.285Z,5.10
2018-12-18T16:03:14.083Z,4.70
2018-12-18T16:15:35.021Z,4.40
2018-12-18T16:18:03.330Z,4.40
2018-12-18T16:30:24.185Z,4.30
2018-12-18T16:52:37.259Z,4.10
2018-12-18T17:02:30.920Z,4.10
2018-12-18T17:04:59.379Z,3.90
2018-12-18T17:14:54.271Z,3.80
2018-12-18T17:47:00.789Z,4.00
2018-12-18T18:46:17.604Z,3.30
2018-12-18T18:48:46.212Z,3.40
2018-12-18T18:51:14.610Z,3.40
2018-12-18T18:53:43.200Z,3.40
2018-12-18T18:56:11.568Z,3.40
2018-12-18T18:58:39.874Z,3.40
2018-12-18T19:08:32.563Z,3.50
2018-12-18T19:13:29.211Z,3.40
2018-12-18T19:15:57.575Z,3.20
2018-12-18T19:18:25.902Z,3.20
2018-12-18T19:20:54.513Z,3.10
2018-12-18T19:23:23.128Z,3.10
2018-12-18T19:25:51.499Z,3.10
2018-12-18T19:28:19.812Z,3.10
2018-12-18T19:30:48.301Z,0.80
2018-12-18T19:33:16.647Z,3.10
2018-12-18T19:35:45.241Z,3.00
2018-12-18T19:38:13.557Z,3.00
2018-12-18T19:40:41.854Z,3.00
2018-12-18T19:43:10.332Z,3.10
2018-12-18T19:45:38.598Z,5.40
2018-12-18T19:48:06.972Z,2.90
2018-12-18T19:50:35.406Z,2.90
2018-12-18T19:53:03.729Z,2.90
2018-12-18T19:55:32.589Z,2.90
2018-12-18T19:58:00.909Z,3.00
2018-12-18T20:00:29.513Z,3.00
2018-12-18T20:02:57.784Z,3.00
2018-12-18T20:05:26.408Z,2.90
2018-12-18T20:07:54.695Z,2.70
2018-12-18T20:10:22.989Z,2.70
2018-12-18T20:12:51.380Z,2.60
2018-12-18T20:15:19.677Z,2.60
2018-12-18T20:17:47.982Z,2.60
2018-12-18T20:20:16.689Z,2.60
2018-12-18T20:22:49.433Z,2.40
2018-12-18T20:27:46.185Z,2.50
2018-12-18T20:37:39.898Z,2.60
2018-12-18T20:50:02.356Z,2.70
2018-12-18T20:52:30.730Z,2.60
2018-12-18T20:54:59.059Z,2.70
2018-12-18T20:57:27.388Z,2.60
2018-12-18T20:59:55.845Z,2.60
2018-12-18T21:02:25.084Z,2.60
2018-12-18T21:04:53.625Z,2.50
2018-12-18T21:07:21.998Z,2.40
2018-12-18T21:09:50.667Z,2.40
2018-12-18T21:14:47.069Z,2.40
2018-12-18T21:17:16.721Z,2.30
2018-12-18T21:19:45.023Z,2.30
2018-12-18T21:22:13.547Z,2.40
2018-12-18T21:24:41.914Z,2.40
2018-12-18T21:27:10.454Z,2.40
2018-12-18T21:29:38.807Z,2.40
2018-12-18T21:32:07.186Z,2.50
2018-12-18T21:34:35.517Z,2.50
2018-12-18T21:37:03.975Z,2.40
2018-12-18T21:39:32.663Z,2.40
2018-12-18T21:42:01.057Z,2.50
2018-12-18T21:44:29.647Z,2.50
2018-12-18T21:46:57.991Z,2.30
2018-12-18T21:49:27.105Z,2.20
2018-12-18T21:51:55.915Z,2.20
2018-12-18T21:56:52.488Z,2.20
2018-12-18T21:59:20.875Z,2.20
2018-12-18T22:01:49.190Z,2.20
2018-12-18T22:04:17.650Z,2.30
2018-12-18T22:06:46.399Z,2.30
2018-12-18T22:09:15.084Z,2.20
2018-12-18T22:11:43.525Z,2.10
2018-12-18T22:14:11.863Z,2.00
2018-12-18T22:16:40.282Z,2.00
2018-12-18T22:19:08.567Z,2.00
2018-12-18T22:21:36.913Z,2.00
2018-12-18T22:24:05.298Z,2.00
2018-12-18T22:26:33.839Z,1.90
2018-12-18T22:29:02.222Z,1.80
2018-12-18T22:31:30.734Z,1.80
2018-12-18T22:33:59.065Z,1.80
2018-12-18T22:38:55.469Z,2.90
2018-12-18T22:43:51.982Z,2.50
2018-12-18T22:46:20.368Z,2.30
2018-12-18T22:51:16.786Z,2.30
2018-12-18T22:56:13.528Z,2.10
2018-12-18T22:58:41.893Z,2.10
2018-12-18T23:03:46.329Z,1.90
2018-12-18T23:08:43.199Z,1.70
2018-12-18T23:11:11.593Z,1.60
2018-12-18T23:13:39.973Z,1.70
2018-12-18T23:16:08.347Z,1.70
2018-12-18T23:21:04.915Z,1.60
2018-12-18T23:23:34.124Z,1.50
2018-12-18T23:26:02.569Z,1.50
2018-12-18T23:28:31.082Z,1.50
2018-12-18T23:30:59.679Z,1.50
2018-12-18T23:35:56.811Z,1.70
2018-12-18T23:38:25.386Z,1.70
2018-12-18T23:40:54.009Z,1.70
2018-12-18T23:43:22.357Z,1.80
2018-12-18T23:45:50.645Z,1.70
2018-12-18T23:48:19.050Z,1.60
2018-12-18T23:50:47.412Z,1.60
2018-12-18T23:53:15.750Z,1.60
2018-12-18T23:55:44.070Z,1.60
2018-12-18T23:58:12.393Z,1.50
